• Join FlightAware (Why Join?)
  • Login
  • US Flag 
11:04AM EDT


 

Airport Tracker/Info


-or-


 

Live Flight TrackerFlight Track Log ✈ ASQ5941 ✈ 09-Jul-2013 ✈ KAVP - KORD

Flight Track Log - Related Links

Times and Time Zones

All times are in EDT time to prevent confusion due to time zone crossing. See the ASQ5941 flight status page for this flight to view local times or setup timezone preferences in your user account.

Time Position Orientation Groundspeed Altitude Reporting Facility
EDT Latitude Longitude Course Direction KTS MPH feet Rate Location/Type
06:26PM 41.2850 -75.7683 237° Southwest 192 221 36,000  Level New York Center
06:27PM 41.2553 -75.8325 238° Southwest 208 239 36,000 -14,520 Level New York Center
06:28PM 41.1397 -75.9206 236° Southwest  Level FlightAware Approximate
06:28PM 41.2275 -75.8964 240° Southwest 224 258 7,700  Level New York Center
06:29PM 41.0854 -76.0292 236° Southwest  Level FlightAware Approximate
06:29PM 41.1928 -75.9767 240° Southwest 243 280 9,000  Level New York Center
06:30PM 41.0346 -76.1406 239° Southwest  Level FlightAware Approximate
06:30PM 41.1486 -76.0781 240° Southwest 275 316 10,500  Level New York Center
06:31PM 40.9828 -76.2511 237° Southwest  Level FlightAware Approximate
06:31PM 41.1022 -76.1817 239° Southwest 310 357 11,200  Level New York Center
06:32PM 41.0536 -76.2906 239° Southwest 337 388 12,200 960 Climbing New York Center
06:33PM 41.0092 -76.3942 240° Southwest 358 412 13,200 1,080 Climbing New York Center
06:34PM 40.9508 -76.5242 239° Southwest 371 427 14,400 1,200 Climbing New York Center
06:35PM 40.9014 -76.6381 240° Southwest 365 420 15,600 1,080 Climbing New York Center
06:36PM 40.8544 -76.7411 239° Southwest 365 420 16,600 960 Climbing New York Center
06:37PM 40.8028 -76.8572 240° Southwest 365 420 17,600 840 Climbing New York Center
06:38PM 40.7550 -76.9761 242° Southwest 365 420 18,400 840 Climbing New York Center
06:39PM 40.6775 -77.0622 220° Southwest 365 420 19,400 960 Climbing New York Center
06:40PM 40.5786 -77.1189 204° Southwest 372 428 20,400 960 Climbing New York Center
06:41PM 40.4772 -77.1831 206° Southwest 387 445 21,400 960 Climbing New York Center
06:42PM 40.3778 -77.2447 205° Southwest 397 457 22,400 1,020 Climbing New York Center
06:43PM 40.2794 -77.3281 213° Southwest 402 463 23,500 1,020 Climbing New York Center
06:44PM 40.2028 -77.4297 225° Southwest 397 457 24,500 960 Climbing New York Center
06:45PM 40.1261 -77.5311 225° Southwest 392 451 25,500 900 Climbing New York Center
06:47PM 39.9461 -77.7672 225° Southwest 377 434 27,800 900 Climbing Washington Center
06:48PM 39.8692 -77.8731 227° Southwest 395 455 28,800 960 Climbing Washington Center
06:49PM 39.7922 -77.9733 225° Southwest 395 455 29,800 960 Climbing Washington Center
06:50PM 39.7153 -78.0733 225° Southwest 395 455 30,800 960 Climbing Washington Center
06:51PM 39.6381 -78.1756 226° Southwest 395 455 31,800 900 Climbing Washington Center
06:52PM 39.5589 -78.2778 225° Southwest 395 455 32,700 900 Climbing Washington Center
06:53PM 39.4792 -78.3825 225° Southwest 400 460 33,700 960 Climbing Washington Center
06:54PM 39.3997 -78.4842 225° Southwest 400 460 34,700 900 Climbing Washington Center
06:55PM 39.3200 -78.5883 225° Southwest 400 460 35,600 600 Climbing Washington Center
06:56PM 39.2383 -78.6922 225° Southwest 400 460 36,000 180 Climbing Washington Center
06:57PM 39.1519 -78.8008 224° Southwest 412 474 36,000  Level Washington Center
06:58PM 39.0633 -78.9147 225° Southwest 437 503 36,000  Level Washington Center
06:59PM 38.9728 -79.0306 225° Southwest 455 524 36,000  Level Washington Center
07:00PM 38.8919 -79.1575 231° Southwest 460 529 36,000  Level Washington Center
07:01PM 38.8456 -79.3047 248° West 455 524 36,000  Level Washington Center
07:02PM 38.8347 -79.4561 265° West 425 489 36,000  Level Washington Center
07:03PM 38.8353 -79.6292 270° West 435 501 36,000  Level Washington Center
07:04PM 38.8300 -79.7836 268° West 435 501 36,000  Level Washington Center
07:05PM 38.8267 -79.9325 268° West 435 501 36,000  Level Washington Center
07:06PM 38.8233 -80.0039 267° West 429 494 36,000  Level Indianapolis Center
07:07PM 38.8183 -80.1883 268° West 431 496 36,000  Level Indianapolis Center
07:08PM 38.8133 -80.3406 268° West 428 493 36,000  Level Indianapolis Center
07:09PM 38.8097 -80.4917 268° West 425 489 36,000  Level Indianapolis Center
07:10PM 38.8047 -80.6433 268° West 426 490 36,000  Level Indianapolis Center
07:11PM 38.8000 -80.7958 268° West 429 494 36,000  Level Indianapolis Center
07:12PM 38.7936 -80.9794 268° West 431 496 36,000  Level Indianapolis Center
07:13PM 38.7897 -81.1339 268° West 434 499 36,000  Level Indianapolis Center
07:14PM 38.7844 -81.2886 268° West 436 502 36,000  Level Indianapolis Center
07:15PM 38.7767 -81.4542 267° West 440 506 36,000  Level Indianapolis Center
07:16PM 38.7725 -81.6153 268° West 449 517 36,000  Level Indianapolis Center
07:17PM 38.7653 -81.7844 267° West 445 512 36,000  Level Indianapolis Center
07:18PM 38.7586 -81.9408 267° West 442 509 36,000  Level Indianapolis Center
07:19PM 38.7519 -82.0978 267° West 442 509 36,000  Level Indianapolis Center
07:20PM 38.7461 -82.2478 267° West 423 487 36,000  Level Indianapolis Center
07:21PM 38.7408 -82.3994 267° West 426 490 36,000  Level Indianapolis Center
07:22PM 38.7339 -82.5542 267° West 434 499 36,000  Level Indianapolis Center
07:23PM 38.7275 -82.7119 267° West 441 507 36,000  Level Indianapolis Center
07:24PM 38.7211 -82.8728 267° West 449 517 36,000  Level Indianapolis Center
07:25PM 38.7122 -83.0667 267° West 453 521 36,000  Level Indianapolis Center
07:26PM 38.7050 -83.2167 267° West 457 526 36,000  Level Indianapolis Center
07:28PM 38.6975 -83.3778 267° West 450 518 36,000  Level Indianapolis Center
07:29PM 38.7089 -83.5328 275° West 439 505 36,000  Level Indianapolis Center
07:30PM 38.7539 -83.6789 292° West 438 504 36,000  Level Indianapolis Center
07:31PM 38.8097 -83.8472 293° West 437 503 36,000  Level Indianapolis Center
07:32PM 38.8572 -83.9969 292° West 445 512 36,000  Level Indianapolis Center
07:33PM 38.9053 -84.1456 293° West 446 513 36,000  Level Indianapolis Center
07:34PM 38.9536 -84.2967 292° West 451 519 36,000  Level Indianapolis Center
07:35PM 39.0025 -84.4478 293° West 452 520 36,000 -420 Level Indianapolis Center
07:36PM 39.0492 -84.5953 292° West 444 511 35,200 -1,440 Descending Indianapolis Center
07:37PM 39.0944 -84.7356 293° West 424 488 33,100 -2,040 Descending Indianapolis Center
07:38PM 39.1408 -84.8850 292° West 431 496 31,100 -1,080 Descending Indianapolis Center
07:39PM 39.2211 -85.0000 312° West 426 490 31,000 -720 Descending Indianapolis Center
07:40PM 39.3311 -85.0644 336° Northwest 440 506 29,700 -1,020 Descending Indianapolis Center
07:41PM 39.4444 -85.1239 338° Northwest 444 511 29,000 -840 Descending Indianapolis Center
07:42PM 39.5592 -85.1842 338° Northwest 446 513 28,100 -540 Descending Indianapolis Center
07:43PM 39.6983 -85.2564 338° Northwest 451 519 28,000 -60 Descending Indianapolis Center
07:44PM 39.8122 -85.3164 338° Northwest 446 513 28,000  Level Indianapolis Center
07:45PM 39.9264 -85.3767 338° Northwest 446 513 28,000  Level Indianapolis Center
07:46PM 40.0403 -85.4372 338° Northwest 446 513 28,000 -300 Level Indianapolis Center
07:47PM 40.1553 -85.4975 338° Northwest 448 516 27,400 -1,380 Descending Indianapolis Center
07:48PM 40.2936 -85.5717 338° Northwest 451 519 25,200 -1,680 Descending Indianapolis Center
07:49PM 40.4050 -85.6403 335° Northwest 450 518 24,000 -840 Descending Indianapolis Center
07:50PM 40.4861 -85.7433 316° Northwest 410 472 23,600 -540 Descending Indianapolis Center
07:51PM 40.5700 -85.8219 325° Northwest 378 435 23,000 -300 Descending Indianapolis Center
07:52PM 40.6567 -85.8978 326° Northwest 377 434 23,000  Level Indianapolis Center
07:53PM 40.7489 -85.9783 327° Northwest 394 453 23,000  Level Indianapolis Center
07:54PM 40.8439 -86.0608 327° Northwest 407 468 23,000  Level Indianapolis Center
07:55PM 40.9594 -86.1639 326° Northwest 418 481 23,000  Level Indianapolis Center
07:56PM 41.0569 -86.2517 326° Northwest 423 487 23,000 -540 Level Indianapolis Center
07:57PM 41.1542 -86.3400 326° Northwest 426 490 21,900 -1,620 Descending Indianapolis Center
07:58PM 41.2500 -86.4231 327° Northwest 415 478 19,700 -2,580 Descending Indianapolis Center
08:00PM 41.3767 -86.5389 326° Northwest 393 452 15,900 -2,400 Descending Chicago Center
08:01PM 41.4603 -86.6150 326° Northwest 369 425 14,100 -1,800 Descending Chicago Center
08:02PM 41.5439 -86.6911 326° Northwest 365 420 12,300 -1,020 Descending Chicago Center
08:03PM 41.6303 -86.7669 327° Northwest 357 411 12,000 -180 Descending Chicago Center
08:04PM 41.7056 -86.7994 342° North 294 338 12,000  Level Chicago Center
08:05PM 41.7842 -86.8100 354° North 287 330 12,000  Level Chicago Center
08:06PM 41.8728 -86.8467 343° North 284 327 12,000 -60 Level Chicago Center
08:07PM 41.9075 -86.9325 299° West 275 316 11,900 -660 Descending Chicago Center
08:08PM 41.9422 -87.0222 298° West 271 312 10,700 -1,080 Descending Chicago Center
08:09PM 41.9753 -87.1122 296° West 272 313 9,700 -840 Descending Chicago Center
08:10PM 41.9892 -87.1989 282° West 241 277 9,000 -360 Descending Chicago Center
08:11PM 41.9786 -87.2925 261° West 218 251 9,000 -540 Level Chicago Center
08:12PM 41.9847 -87.3744 276° West 219 252 8,000 -1,020 Descending Chicago Center
08:13PM 41.9806 -87.4461 266° West 199 229 7,000 -1,020 Descending Chicago Center
08:14PM 41.9842 -87.5111 274° West 183 211 6,000 -960 Descending Chicago Center
08:15PM 41.9819 -87.5744 267° West 174 200 5,100 -960 Descending Chicago Center
08:16PM 41.9833 -87.6481 271° West 167 192 4,100 -960 Descending Chicago Center
08:17PM 41.9839 -87.7092 271° West 166 191 3,200 -840 Descending Chicago Center
08:18PM 41.9833 -87.7703 269° West 166 191 2,400 -780 Descending Chicago Center